createdAt,value
2018-04-15T00:06:00.553Z,82.70
2018-04-15T00:12:04.962Z,82.74
2018-04-15T00:18:09.640Z,83.06
2018-04-15T00:24:14.477Z,82.13
2018-04-15T00:30:19.055Z,83.61
2018-04-15T00:36:23.543Z,83.12
2018-04-15T00:42:28.051Z,82.32
2018-04-15T00:48:32.438Z,82.07
2018-04-15T00:54:36.804Z,82.49
2018-04-15T01:00:41.768Z,82.16
2018-04-15T01:06:46.506Z,81.90
2018-04-15T01:12:50.988Z,82.72
2018-04-15T01:18:56.130Z,82.46
2018-04-15T01:25:00.557Z,82.39
2018-04-15T01:31:05.687Z,82.99
2018-04-15T01:37:10.268Z,82.87
2018-04-15T01:43:15.148Z,82.56
2018-04-15T01:49:19.631Z,82.23
2018-04-15T01:55:24.092Z,82.83
2018-04-15T02:01:28.678Z,83.02
2018-04-15T02:07:33.042Z,82.38
2018-04-15T02:13:37.407Z,82.09
2018-04-15T02:19:42.596Z,82.10
2018-04-15T02:25:47.740Z,82.66
2018-04-15T02:31:52.120Z,82.55
2018-04-15T02:37:56.563Z,83.12
2018-04-15T02:44:01.063Z,83.41
2018-04-15T02:50:05.435Z,82.84
2018-04-15T02:56:10.062Z,82.56
2018-04-15T03:02:14.621Z,82.69
2018-04-15T03:08:19.313Z,82.40
2018-04-15T03:14:24.431Z,82.12
2018-04-15T03:20:29.551Z,82.41
2018-04-15T03:26:33.908Z,81.94
2018-04-15T03:32:38.286Z,82.78
2018-04-15T03:38:43.705Z,82.53
2018-04-15T03:44:48.069Z,83.24
2018-04-15T03:50:52.461Z,83.12
2018-04-15T03:56:56.881Z,83.45
2018-04-15T04:03:01.240Z,83.92
2018-04-15T04:09:05.619Z,84.17
2018-04-15T04:15:10.342Z,84.17
2018-04-15T04:21:32.946Z,83.39
2018-04-15T04:27:37.356Z,84.08
2018-04-15T04:33:42.164Z,84.08
2018-04-15T04:39:46.594Z,83.88
2018-04-15T04:45:51.026Z,84.02
2018-04-15T04:51:55.440Z,84.02
2018-04-15T04:57:59.931Z,83.85
2018-04-15T05:04:04.296Z,83.19
2018-04-15T05:10:08.699Z,83.53
2018-04-15T05:16:13.663Z,83.18
2018-04-15T05:22:18.052Z,83.04
2018-04-15T05:28:22.403Z,83.19
2018-04-15T05:34:26.769Z,82.97
2018-04-15T05:40:31.143Z,82.97
2018-04-15T05:46:35.547Z,82.63
2018-04-15T05:52:39.941Z,82.52
2018-04-15T05:58:44.548Z,82.73
2018-04-15T06:04:49.674Z,83.05
2018-04-15T06:10:54.025Z,83.31
2018-04-15T06:16:59.165Z,83.11
2018-04-15T06:23:03.541Z,83.52
2018-04-15T06:29:07.927Z,83.00
2018-04-15T06:35:12.741Z,82.86
2018-04-15T06:41:17.249Z,82.71
2018-04-15T06:47:21.612Z,82.61
2018-04-15T06:53:26.809Z,81.94
2018-04-15T06:59:31.940Z,81.73
2018-04-15T07:05:36.335Z,80.55
2018-04-15T07:11:40.709Z,79.89
2018-04-15T07:17:45.348Z,80.25
2018-04-15T07:23:49.711Z,80.15
2018-04-15T07:29:54.093Z,79.30
2018-04-15T07:35:58.463Z,79.24
2018-04-15T07:42:02.837Z,79.32
2018-04-15T07:48:07.227Z,79.81
2018-04-15T07:54:11.690Z,79.34
2018-04-15T08:00:16.066Z,78.19
2018-04-15T08:06:20.487Z,78.15
2018-04-15T08:12:24.893Z,77.18
2018-04-15T08:18:29.262Z,77.11
2018-04-15T08:24:33.632Z,76.52
2018-04-15T08:30:38.094Z,76.82
2018-04-15T08:36:42.699Z,75.04
2018-04-15T08:42:47.078Z,75.34
2018-04-15T08:48:52.238Z,75.89
2018-04-15T08:54:56.597Z,75.33
2018-04-15T09:01:01.009Z,74.32
2018-04-15T09:07:05.377Z,74.53
2018-04-15T09:13:10.325Z,73.67
2018-04-15T09:19:15.559Z,73.14
2018-04-15T09:25:20.079Z,70.10
2018-04-15T09:31:24.491Z,69.65
2018-04-15T09:37:28.959Z,69.76
2018-04-15T09:43:33.327Z,70.45
2018-04-15T09:49:37.748Z,69.09
2018-04-15T09:55:42.793Z,69.98
2018-04-15T10:01:47.264Z,69.95
2018-04-15T10:07:51.720Z,69.26
2018-04-15T10:13:56.111Z,67.28
2018-04-15T10:20:00.602Z,64.82
2018-04-15T10:26:04.980Z,64.43
2018-04-15T10:32:09.374Z,64.58
2018-04-15T10:38:13.806Z,63.47
2018-04-15T10:44:18.190Z,59.39
2018-04-15T10:50:22.559Z,54.87
2018-04-15T10:56:26.959Z,50.17
2018-04-15T11:02:31.419Z,49.54
2018-04-15T11:08:35.801Z,48.34
2018-04-15T11:14:41.019Z,47.98
2018-04-15T11:20:46.254Z,43.16
2018-04-15T11:26:51.488Z,38.39
2018-04-15T11:32:55.837Z,35.42
2018-04-15T11:39:00.238Z,34.63
2018-04-15T11:45:04.611Z,35.87
2018-04-15T11:51:08.986Z,37.41
2018-04-15T11:57:13.762Z,37.67
2018-04-15T12:03:18.179Z,39.55
2018-04-15T12:09:22.574Z,35.37
2018-04-15T12:15:27.705Z,35.77
2018-04-15T12:21:32.062Z,36.57
2018-04-15T12:27:36.476Z,34.67
2018-04-15T12:33:41.169Z,34.03
2018-04-15T12:39:45.630Z,30.26
2018-04-15T12:45:50.179Z,29.91
2018-04-15T12:51:54.609Z,28.56
2018-04-15T12:57:59.031Z,28.41
2018-04-15T13:04:03.424Z,29.06
2018-04-15T13:10:07.808Z,29.84
2018-04-15T13:16:12.251Z,28.64
2018-04-15T13:22:17.501Z,28.55
2018-04-15T13:28:21.878Z,25.37
2018-04-15T13:34:26.249Z,25.26
2018-04-15T13:40:30.633Z,24.97
2018-04-15T13:46:35.000Z,25.73
2018-04-15T13:52:39.380Z,26.76
2018-04-15T13:58:43.768Z,29.62
2018-04-15T14:04:48.136Z,29.29
2018-04-15T14:10:52.527Z,27.42
2018-04-15T14:16:56.887Z,25.25
2018-04-15T14:23:01.368Z,24.77
2018-04-15T14:29:05.725Z,29.01
2018-04-15T14:35:10.128Z,28.36
2018-04-15T14:41:14.630Z,28.35
2018-04-15T14:47:19.802Z,32.48
2018-04-15T14:53:24.168Z,35.50
2018-04-15T14:59:29.388Z,34.18
2018-04-15T15:05:34.540Z,30.93
2018-04-15T15:11:38.934Z,32.01
2018-04-15T15:17:43.345Z,33.30
2018-04-15T15:23:47.747Z,28.07
2018-04-15T15:29:52.187Z,31.57
2018-04-15T15:35:57.365Z,28.89
2018-04-15T15:42:02.572Z,27.72
2018-04-15T15:48:06.935Z,30.37
2018-04-15T15:54:12.136Z,30.44
2018-04-15T16:00:16.511Z,27.30
2018-04-15T16:06:21.637Z,25.71
2018-04-15T16:12:26.003Z,24.32
2018-04-15T16:18:30.451Z,27.88
2018-04-15T16:24:35.653Z,30.73
2018-04-15T16:30:41.769Z,36.03
2018-04-15T16:36:46.891Z,40.84
2018-04-15T16:42:51.269Z,43.03
2018-04-15T16:48:55.647Z,43.22
2018-04-15T16:55:00.096Z,46.20
2018-04-15T17:01:04.469Z,45.95
2018-04-15T17:07:08.843Z,47.07
2018-04-15T17:13:13.375Z,42.71
2018-04-15T17:19:17.936Z,43.59
2018-04-15T17:25:22.360Z,45.97
2018-04-15T17:31:27.567Z,51.34
2018-04-15T17:37:31.928Z,52.56
2018-04-15T17:43:37.064Z,51.31
2018-04-15T17:49:42.397Z,55.02
2018-04-15T17:55:46.801Z,54.89
2018-04-15T18:01:51.182Z,56.98
2018-04-15T18:07:55.558Z,59.83
2018-04-15T18:14:00.785Z,61.79
2018-04-15T18:20:05.160Z,62.93
2018-04-15T18:26:09.670Z,64.12
2018-04-15T18:32:14.136Z,66.03
2018-04-15T18:38:18.579Z,66.50
2018-04-15T18:44:22.955Z,68.00
2018-04-15T18:50:27.354Z,68.21
2018-04-15T18:56:31.733Z,68.43
2018-04-15T19:02:36.212Z,68.82
2018-04-15T19:08:42.426Z,69.71
2018-04-15T19:14:47.032Z,70.08
2018-04-15T19:20:51.400Z,70.36
2018-04-15T19:26:55.798Z,70.82
2018-04-15T19:33:00.973Z,70.65
2018-04-15T19:39:06.177Z,71.57
2018-04-15T19:45:12.070Z,71.98
2018-04-15T19:51:16.683Z,72.24
2018-04-15T19:57:21.117Z,72.86
2018-04-15T20:03:25.523Z,72.50
2018-04-15T20:09:30.710Z,72.65
2018-04-15T20:15:35.907Z,72.81
2018-04-15T20:21:42.067Z,72.75
2018-04-15T20:27:46.629Z,73.07
2018-04-15T20:33:51.003Z,73.84
2018-04-15T20:39:55.393Z,73.79
2018-04-15T20:45:59.832Z,73.92
2018-04-15T20:52:04.987Z,74.01
2018-04-15T20:58:09.395Z,75.00
2018-04-15T21:04:13.798Z,74.84
2018-04-15T21:10:18.209Z,74.99
2018-04-15T21:16:22.703Z,74.46
2018-04-15T21:22:27.091Z,75.02
2018-04-15T21:28:31.476Z,75.54
2018-04-15T21:34:36.694Z,75.47
2018-04-15T21:40:41.415Z,75.77
2018-04-15T21:46:45.922Z,75.00
2018-04-15T21:52:51.103Z,75.25
2018-04-15T21:58:55.642Z,75.69
2018-04-15T22:05:00.042Z,75.46
2018-04-15T22:11:04.418Z,75.74
2018-04-15T22:17:08.894Z,76.08
2018-04-15T22:23:13.429Z,75.65
2018-04-15T22:29:17.803Z,76.19
2018-04-15T22:35:22.166Z,76.24
2018-04-15T22:41:27.314Z,76.73
2018-04-15T22:47:31.696Z,77.30
2018-04-15T22:53:36.079Z,77.99
2018-04-15T22:59:40.718Z,77.95
2018-04-15T23:05:45.092Z,77.96
2018-04-15T23:11:49.577Z,77.58
2018-04-15T23:17:53.945Z,77.30
2018-04-15T23:23:58.346Z,78.12
2018-04-15T23:30:02.720Z,78.09
2018-04-15T23:36:07.101Z,78.16
2018-04-15T23:42:11.460Z,78.46
2018-04-15T23:48:15.918Z,78.73
2018-04-15T23:54:20.295Z,78.97
